sensor_id;sensor_type;location;lat;lon;timestamp;P1;durP1;ratioP1;P2;durP2;ratioP2
56481;SDS011;42384;45.186;19.958;2024-02-21T00:01:08;12.43;;;7.47;;
56481;SDS011;42384;45.186;19.958;2024-02-21T00:03:34;10.40;;;7.10;;
56481;SDS011;42384;45.186;19.958;2024-02-21T00:06:00;15.57;;;7.57;;
56481;SDS011;42384;45.186;19.958;2024-02-21T00:08:26;13.60;;;8.20;;
56481;SDS011;42384;45.186;19.958;2024-02-21T00:10:53;11.63;;;7.00;;
56481;SDS011;42384;45.186;19.958;2024-02-21T00:13:19;13.60;;;6.90;;
56481;SDS011;42384;45.186;19.958;2024-02-21T00:15:45;11.33;;;7.43;;
56481;SDS011;42384;45.186;19.958;2024-02-21T00:18:11;13.25;;;8.15;;
56481;SDS011;42384;45.186;19.958;2024-02-21T00:20:38;14.77;;;7.18;;
56481;SDS011;42384;45.186;19.958;2024-02-21T00:23:04;16.90;;;9.43;;
56481;SDS011;42384;45.186;19.958;2024-02-21T00:25:30;12.88;;;7.90;;
56481;SDS011;42384;45.186;19.958;2024-02-21T00:27:57;12.53;;;8.50;;
56481;SDS011;42384;45.186;19.958;2024-02-21T00:30:23;17.60;;;8.57;;
56481;SDS011;42384;45.186;19.958;2024-02-21T00:32:49;11.90;;;7.33;;
56481;SDS011;42384;45.186;19.958;2024-02-21T00:35:15;11.57;;;8.57;;
56481;SDS011;42384;45.186;19.958;2024-02-21T00:37:42;13.30;;;8.43;;
56481;SDS011;42384;45.186;19.958;2024-02-21T00:40:08;12.05;;;7.97;;
56481;SDS011;42384;45.186;19.958;2024-02-21T00:42:34;12.65;;;8.00;;
56481;SDS011;42384;45.186;19.958;2024-02-21T00:45:01;11.20;;;7.70;;
56481;SDS011;42384;45.186;19.958;2024-02-21T00:47:27;14.67;;;8.87;;
56481;SDS011;42384;45.186;19.958;2024-02-21T00:49:53;16.50;;;10.57;;
56481;SDS011;42384;45.186;19.958;2024-02-21T00:52:20;14.35;;;8.80;;
56481;SDS011;42384;45.186;19.958;2024-02-21T00:54:46;14.77;;;8.57;;
56481;SDS011;42384;45.186;19.958;2024-02-21T00:57:14;13.98;;;8.68;;
56481;SDS011;42384;45.186;19.958;2024-02-21T00:59:40;16.33;;;10.07;;
56481;SDS011;42384;45.186;19.958;2024-02-21T01:02:07;12.30;;;8.10;;
56481;SDS011;42384;45.186;19.958;2024-02-21T01:04:34;13.90;;;8.98;;
56481;SDS011;42384;45.186;19.958;2024-02-21T01:09:26;15.55;;;9.07;;
56481;SDS011;42384;45.186;19.958;2024-02-21T01:11:53;15.07;;;7.97;;
56481;SDS011;42384;45.186;19.958;2024-02-21T01:14:19;11.18;;;7.88;;
56481;SDS011;42384;45.186;19.958;2024-02-21T01:16:45;14.90;;;7.93;;
56481;SDS011;42384;45.186;19.958;2024-02-21T01:19:11;12.30;;;8.40;;
56481;SDS011;42384;45.186;19.958;2024-02-21T01:21:38;13.38;;;8.50;;
56481;SDS011;42384;45.186;19.958;2024-02-21T01:24:04;13.93;;;9.27;;
56481;SDS011;42384;45.186;19.958;2024-02-21T01:26:30;13.73;;;8.67;;
56481;SDS011;42384;45.186;19.958;2024-02-21T01:28:56;16.27;;;9.27;;
56481;SDS011;42384;45.186;19.958;2024-02-21T01:31:23;15.33;;;8.67;;
56481;SDS011;42384;45.186;19.958;2024-02-21T01:33:49;15.67;;;8.67;;
56481;SDS011;42384;45.186;19.958;2024-02-21T01:36:15;13.77;;;8.83;;
56481;SDS011;42384;45.186;19.958;2024-02-21T01:38:41;13.43;;;9.18;;
56481;SDS011;42384;45.186;19.958;2024-02-21T01:41:07;16.67;;;8.93;;
56481;SDS011;42384;45.186;19.958;2024-02-21T01:43:34;14.40;;;9.48;;
56481;SDS011;42384;45.186;19.958;2024-02-21T01:46:00;17.25;;;10.70;;
56481;SDS011;42384;45.186;19.958;2024-02-21T01:48:26;15.37;;;9.30;;
56481;SDS011;42384;45.186;19.958;2024-02-21T01:50:54;13.02;;;8.73;;
56481;SDS011;42384;45.186;19.958;2024-02-21T01:53:30;16.88;;;9.98;;
56481;SDS011;42384;45.186;19.958;2024-02-21T01:55:56;14.80;;;9.43;;
56481;SDS011;42384;45.186;19.958;2024-02-21T01:58:23;13.35;;;8.27;;
56481;SDS011;42384;45.186;19.958;2024-02-21T02:00:49;12.10;;;8.18;;
56481;SDS011;42384;45.186;19.958;2024-02-21T02:03:16;12.55;;;8.38;;
56481;SDS011;42384;45.186;19.958;2024-02-21T02:05:43;11.68;;;8.13;;
56481;SDS011;42384;45.186;19.958;2024-02-21T02:10:36;9.98;;;6.72;;
56481;SDS011;42384;45.186;19.958;2024-02-21T02:13:03;12.85;;;7.28;;
56481;SDS011;42384;45.186;19.958;2024-02-21T02:15:37;10.23;;;6.50;;
56481;SDS011;42384;45.186;19.958;2024-02-21T02:18:03;10.93;;;6.78;;
56481;SDS011;42384;45.186;19.958;2024-02-21T02:20:30;9.67;;;6.23;;
56481;SDS011;42384;45.186;19.958;2024-02-21T02:22:57;12.83;;;6.70;;
56481;SDS011;42384;45.186;19.958;2024-02-21T02:25:24;12.10;;;6.88;;
56481;SDS011;42384;45.186;19.958;2024-02-21T02:27:50;11.93;;;7.25;;
56481;SDS011;42384;45.186;19.958;2024-02-21T02:30:17;12.15;;;5.95;;
56481;SDS011;42384;45.186;19.958;2024-02-21T02:32:46;12.80;;;6.95;;
56481;SDS011;42384;45.186;19.958;2024-02-21T02:35:12;11.60;;;6.68;;
56481;SDS011;42384;45.186;19.958;2024-02-21T02:37:39;9.73;;;6.57;;
56481;SDS011;42384;45.186;19.958;2024-02-21T02:40:06;10.60;;;6.83;;
56481;SDS011;42384;45.186;19.958;2024-02-21T02:42:33;11.77;;;6.13;;
56481;SDS011;42384;45.186;19.958;2024-02-21T02:44:59;12.05;;;6.20;;
56481;SDS011;42384;45.186;19.958;2024-02-21T02:47:26;10.87;;;6.67;;
56481;SDS011;42384;45.186;19.958;2024-02-21T02:49:52;10.52;;;6.30;;
56481;SDS011;42384;45.186;19.958;2024-02-21T02:52:18;8.40;;;5.70;;
56481;SDS011;42384;45.186;19.958;2024-02-21T02:54:45;8.73;;;5.97;;
56481;SDS011;42384;45.186;19.958;2024-02-21T02:57:17;9.10;;;6.57;;
56481;SDS011;42384;45.186;19.958;2024-02-21T02:59:47;10.65;;;6.57;;
56481;SDS011;42384;45.186;19.958;2024-02-21T03:02:13;9.82;;;5.72;;
56481;SDS011;42384;45.186;19.958;2024-02-21T03:04:40;8.27;;;5.80;;
56481;SDS011;42384;45.186;19.958;2024-02-21T03:07:06;11.30;;;6.17;;
56481;SDS011;42384;45.186;19.958;2024-02-21T03:09:32;9.27;;;5.10;;
56481;SDS011;42384;45.186;19.958;2024-02-21T03:11:59;7.30;;;4.53;;
56481;SDS011;42384;45.186;19.958;2024-02-21T03:14:30;6.88;;;4.30;;
56481;SDS011;42384;45.186;19.958;2024-02-21T03:16:57;7.90;;;4.22;;
56481;SDS011;42384;45.186;19.958;2024-02-21T03:19:24;6.43;;;3.90;;
56481;SDS011;42384;45.186;19.958;2024-02-21T03:21:51;7.22;;;3.75;;
56481;SDS011;42384;45.186;19.958;2024-02-21T03:24:20;8.02;;;3.88;;
56481;SDS011;42384;45.186;19.958;2024-02-21T03:26:46;6.05;;;3.85;;
56481;SDS011;42384;45.186;19.958;2024-02-21T03:31:40;8.68;;;4.28;;
56481;SDS011;42384;45.186;19.958;2024-02-21T03:34:06;8.27;;;4.60;;
56481;SDS011;42384;45.186;19.958;2024-02-21T03:36:32;6.70;;;4.00;;
56481;SDS011;42384;45.186;19.958;2024-02-21T03:38:58;8.80;;;4.70;;
56481;SDS011;42384;45.186;19.958;2024-02-21T03:41:25;6.57;;;3.92;;
56481;SDS011;42384;45.186;19.958;2024-02-21T03:43:51;5.10;;;3.80;;
56481;SDS011;42384;45.186;19.958;2024-02-21T03:46:17;5.50;;;3.50;;
56481;SDS011;42384;45.186;19.958;2024-02-21T03:48:43;6.57;;;3.58;;
56481;SDS011;42384;45.186;19.958;2024-02-21T03:51:10;8.02;;;4.05;;
56481;SDS011;42384;45.186;19.958;2024-02-21T03:53:37;7.37;;;3.93;;
56481;SDS011;42384;45.186;19.958;2024-02-21T03:56:03;7.07;;;3.97;;
56481;SDS011;42384;45.186;19.958;2024-02-21T03:58:30;6.68;;;4.20;;
56481;SDS011;42384;45.186;19.958;2024-02-21T04:00:56;6.45;;;3.95;;
56481;SDS011;42384;45.186;19.958;2024-02-21T04:03:23;5.63;;;3.65;;
56481;SDS011;42384;45.186;19.958;2024-02-21T04:05:49;6.85;;;4.38;;
56481;SDS011;42384;45.186;19.958;2024-02-21T04:08:16;7.15;;;4.20;;
56481;SDS011;42384;45.186;19.958;2024-02-21T04:10:42;5.60;;;3.50;;
56481;SDS011;42384;45.186;19.958;2024-02-21T04:13:09;5.33;;;3.63;;
56481;SDS011;42384;45.186;19.958;2024-02-21T04:15:35;6.80;;;4.03;;
56481;SDS011;42384;45.186;19.958;2024-02-21T04:18:01;6.70;;;4.07;;
56481;SDS011;42384;45.186;19.958;2024-02-21T04:20:30;6.10;;;4.20;;
56481;SDS011;42384;45.186;19.958;2024-02-21T04:22:57;5.20;;;3.78;;
56481;SDS011;42384;45.186;19.958;2024-02-21T04:25:24;7.15;;;4.35;;
56481;SDS011;42384;45.186;19.958;2024-02-21T04:27:50;7.93;;;4.28;;
56481;SDS011;42384;45.186;19.958;2024-02-21T04:30:16;7.63;;;4.43;;
56481;SDS011;42384;45.186;19.958;2024-02-21T04:32:43;8.75;;;4.47;;
56481;SDS011;42384;45.186;19.958;2024-02-21T04:35:09;8.07;;;4.93;;
56481;SDS011;42384;45.186;19.958;2024-02-21T04:37:35;7.07;;;4.18;;
56481;SDS011;42384;45.186;19.958;2024-02-21T04:40:02;6.93;;;4.87;;
56481;SDS011;42384;45.186;19.958;2024-02-21T04:42:28;5.00;;;3.53;;
56481;SDS011;42384;45.186;19.958;2024-02-21T04:44:54;5.73;;;4.03;;
56481;SDS011;42384;45.186;19.958;2024-02-21T04:47:20;5.37;;;4.23;;
56481;SDS011;42384;45.186;19.958;2024-02-21T04:49:48;8.48;;;4.15;;
56481;SDS011;42384;45.186;19.958;2024-02-21T04:52:15;6.43;;;4.20;;
56481;SDS011;42384;45.186;19.958;2024-02-21T04:54:41;8.13;;;4.47;;
56481;SDS011;42384;45.186;19.958;2024-02-21T04:57:07;7.10;;;4.10;;
56481;SDS011;42384;45.186;19.958;2024-02-21T04:59:35;6.90;;;4.18;;
56481;SDS011;42384;45.186;19.958;2024-02-21T05:02:02;7.93;;;3.95;;
56481;SDS011;42384;45.186;19.958;2024-02-21T05:04:28;6.57;;;4.07;;
56481;SDS011;42384;45.186;19.958;2024-02-21T05:06:55;6.23;;;3.57;;
56481;SDS011;42384;45.186;19.958;2024-02-21T05:09:21;5.63;;;3.70;;
56481;SDS011;42384;45.186;19.958;2024-02-21T05:11:47;7.93;;;3.33;;
56481;SDS011;42384;45.186;19.958;2024-02-21T05:14:13;10.50;;;3.80;;
56481;SDS011;42384;45.186;19.958;2024-02-21T05:16:40;7.17;;;3.17;;
56481;SDS011;42384;45.186;19.958;2024-02-21T05:19:06;4.93;;;3.13;;
56481;SDS011;42384;45.186;19.958;2024-02-21T05:21:32;5.43;;;3.25;;
56481;SDS011;42384;45.186;19.958;2024-02-21T05:23:59;8.43;;;2.80;;
56481;SDS011;42384;45.186;19.958;2024-02-21T05:26:25;8.50;;;3.30;;
56481;SDS011;42384;45.186;19.958;2024-02-21T05:28:52;3.97;;;2.03;;
56481;SDS011;42384;45.186;19.958;2024-02-21T05:31:18;6.23;;;3.00;;
56481;SDS011;42384;45.186;19.958;2024-02-21T05:33:45;4.65;;;2.42;;
56481;SDS011;42384;45.186;19.958;2024-02-21T05:36:12;4.15;;;2.40;;
56481;SDS011;42384;45.186;19.958;2024-02-21T05:38:38;7.10;;;2.78;;
56481;SDS011;42384;45.186;19.958;2024-02-21T05:41:05;5.18;;;2.60;;
56481;SDS011;42384;45.186;19.958;2024-02-21T05:43:31;5.50;;;2.75;;
56481;SDS011;42384;45.186;19.958;2024-02-21T05:45:58;7.10;;;3.05;;
56481;SDS011;42384;45.186;19.958;2024-02-21T05:48:24;6.68;;;2.60;;
56481;SDS011;42384;45.186;19.958;2024-02-21T05:50:50;5.82;;;2.97;;
56481;SDS011;42384;45.186;19.958;2024-02-21T05:53:17;4.43;;;2.03;;
56481;SDS011;42384;45.186;19.958;2024-02-21T05:55:43;3.80;;;2.27;;
56481;SDS011;42384;45.186;19.958;2024-02-21T05:58:09;6.67;;;2.17;;
56481;SDS011;42384;45.186;19.958;2024-02-21T06:00:39;4.97;;;2.90;;
56481;SDS011;42384;45.186;19.958;2024-02-21T06:03:05;5.20;;;2.97;;
56481;SDS011;42384;45.186;19.958;2024-02-21T06:05:36;4.88;;;2.38;;
56481;SDS011;42384;45.186;19.958;2024-02-21T06:08:02;9.27;;;3.15;;
56481;SDS011;42384;45.186;19.958;2024-02-21T06:10:29;6.90;;;3.30;;
56481;SDS011;42384;45.186;19.958;2024-02-21T06:12:55;5.68;;;2.92;;
56481;SDS011;42384;45.186;19.958;2024-02-21T06:15:21;4.65;;;2.80;;
56481;SDS011;42384;45.186;19.958;2024-02-21T06:17:48;12.07;;;3.00;;
56481;SDS011;42384;45.186;19.958;2024-02-21T06:20:16;8.10;;;2.88;;
56481;SDS011;42384;45.186;19.958;2024-02-21T06:22:42;6.57;;;3.08;;
56481;SDS011;42384;45.186;19.958;2024-02-21T06:25:08;6.80;;;2.97;;
56481;SDS011;42384;45.186;19.958;2024-02-21T06:27:34;6.25;;;3.35;;
56481;SDS011;42384;45.186;19.958;2024-02-21T06:30:01;6.40;;;2.95;;
56481;SDS011;42384;45.186;19.958;2024-02-21T06:32:28;6.53;;;3.03;;
56481;SDS011;42384;45.186;19.958;2024-02-21T06:34:54;8.30;;;3.13;;
56481;SDS011;42384;45.186;19.958;2024-02-21T06:37:20;9.20;;;3.93;;
56481;SDS011;42384;45.186;19.958;2024-02-21T06:39:46;6.00;;;3.30;;
56481;SDS011;42384;45.186;19.958;2024-02-21T06:42:13;7.27;;;3.43;;
56481;SDS011;42384;45.186;19.958;2024-02-21T06:44:39;9.63;;;3.37;;
56481;SDS011;42384;45.186;19.958;2024-02-21T06:47:06;6.33;;;3.07;;
56481;SDS011;42384;45.186;19.958;2024-02-21T06:49:33;7.60;;;3.00;;
56481;SDS011;42384;45.186;19.958;2024-02-21T06:52:00;7.90;;;2.90;;
56481;SDS011;42384;45.186;19.958;2024-02-21T06:54:26;7.10;;;2.77;;
56481;SDS011;42384;45.186;19.958;2024-02-21T06:56:52;6.07;;;2.47;;
56481;SDS011;42384;45.186;19.958;2024-02-21T06:59:19;6.97;;;2.40;;
56481;SDS011;42384;45.186;19.958;2024-02-21T07:01:48;5.10;;;2.23;;
56481;SDS011;42384;45.186;19.958;2024-02-21T07:04:15;8.07;;;2.30;;
56481;SDS011;42384;45.186;19.958;2024-02-21T07:06:41;8.27;;;1.80;;
56481;SDS011;42384;45.186;19.958;2024-02-21T07:09:07;3.80;;;1.90;;
56481;SDS011;42384;45.186;19.958;2024-02-21T07:11:34;6.93;;;1.60;;
56481;SDS011;42384;45.186;19.958;2024-02-21T07:14:00;7.40;;;2.00;;
56481;SDS011;42384;45.186;19.958;2024-02-21T07:16:26;9.33;;;2.33;;
56481;SDS011;42384;45.186;19.958;2024-02-21T07:18:54;6.25;;;1.80;;
56481;SDS011;42384;45.186;19.958;2024-02-21T07:21:21;8.65;;;2.78;;
56481;SDS011;42384;45.186;19.958;2024-02-21T07:23:47;6.63;;;2.07;;
56481;SDS011;42384;45.186;19.958;2024-02-21T07:26:14;6.67;;;1.67;;
56481;SDS011;42384;45.186;19.958;2024-02-21T07:28:40;6.03;;;1.95;;
56481;SDS011;42384;45.186;19.958;2024-02-21T07:31:06;8.13;;;2.17;;
56481;SDS011;42384;45.186;19.958;2024-02-21T07:33:32;5.80;;;1.77;;
56481;SDS011;42384;45.186;19.958;2024-02-21T07:36:00;5.60;;;2.28;;
56481;SDS011;42384;45.186;19.958;2024-02-21T07:38:27;5.80;;;2.58;;
56481;SDS011;42384;45.186;19.958;2024-02-21T07:40:53;4.57;;;1.80;;
56481;SDS011;42384;45.186;19.958;2024-02-21T07:43:19;7.00;;;2.87;;
56481;SDS011;42384;45.186;19.958;2024-02-21T07:45:47;4.20;;;1.60;;
56481;SDS011;42384;45.186;19.958;2024-02-21T07:48:13;4.13;;;1.38;;
56481;SDS011;42384;45.186;19.958;2024-02-21T07:50:40;8.73;;;2.45;;
56481;SDS011;42384;45.186;19.958;2024-02-21T07:53:06;6.22;;;2.08;;
56481;SDS011;42384;45.186;19.958;2024-02-21T07:55:32;9.10;;;2.40;;
56481;SDS011;42384;45.186;19.958;2024-02-21T07:57:58;8.83;;;2.57;;
56481;SDS011;42384;45.186;19.958;2024-02-21T08:00:25;8.47;;;2.50;;
56481;SDS011;42384;45.186;19.958;2024-02-21T08:02:51;8.03;;;2.17;;
56481;SDS011;42384;45.186;19.958;2024-02-21T08:05:17;7.47;;;2.43;;
56481;SDS011;42384;45.186;19.958;2024-02-21T08:07:43;6.57;;;2.47;;
56481;SDS011;42384;45.186;19.958;2024-02-21T08:10:10;7.82;;;2.30;;
56481;SDS011;42384;45.186;19.958;2024-02-21T08:12:36;6.65;;;2.45;;
56481;SDS011;42384;45.186;19.958;2024-02-21T08:15:03;6.53;;;1.92;;
56481;SDS011;42384;45.186;19.958;2024-02-21T08:17:29;8.00;;;2.20;;
56481;SDS011;42384;45.186;19.958;2024-02-21T08:19:56;8.10;;;2.33;;
56481;SDS011;42384;45.186;19.958;2024-02-21T08:22:22;11.52;;;2.50;;
56481;SDS011;42384;45.186;19.958;2024-02-21T08:24:48;9.97;;;1.60;;
56481;SDS011;42384;45.186;19.958;2024-02-21T08:27:15;9.82;;;2.15;;
56481;SDS011;42384;45.186;19.958;2024-02-21T08:29:41;8.48;;;2.38;;
56481;SDS011;42384;45.186;19.958;2024-02-21T08:32:07;8.10;;;1.90;;
56481;SDS011;42384;45.186;19.958;2024-02-21T08:34:33;6.60;;;2.17;;
56481;SDS011;42384;45.186;19.958;2024-02-21T08:37:00;7.17;;;1.77;;
56481;SDS011;42384;45.186;19.958;2024-02-21T08:39:26;11.52;;;3.50;;
56481;SDS011;42384;45.186;19.958;2024-02-21T08:41:54;13.65;;;3.78;;
56481;SDS011;42384;45.186;19.958;2024-02-21T08:44:21;7.40;;;2.58;;
56481;SDS011;42384;45.186;19.958;2024-02-21T08:46:49;6.75;;;2.28;;
56481;SDS011;42384;45.186;19.958;2024-02-21T08:49:15;8.73;;;2.73;;
56481;SDS011;42384;45.186;19.958;2024-02-21T08:51:41;11.60;;;2.20;;
56481;SDS011;42384;45.186;19.958;2024-02-21T08:54:09;6.65;;;2.38;;
56481;SDS011;42384;45.186;19.958;2024-02-21T08:56:35;12.25;;;2.90;;
56481;SDS011;42384;45.186;19.958;2024-02-21T08:59:02;6.75;;;2.50;;
56481;SDS011;42384;45.186;19.958;2024-02-21T09:01:28;9.02;;;3.22;;
56481;SDS011;42384;45.186;19.958;2024-02-21T09:03:55;9.47;;;2.30;;
56481;SDS011;42384;45.186;19.958;2024-02-21T09:06:22;8.10;;;2.50;;
56481;SDS011;42384;45.186;19.958;2024-02-21T09:08:48;7.45;;;2.28;;
56481;SDS011;42384;45.186;19.958;2024-02-21T09:11:14;7.30;;;2.78;;
56481;SDS011;42384;45.186;19.958;2024-02-21T09:13:41;10.10;;;2.85;;
56481;SDS011;42384;45.186;19.958;2024-02-21T09:16:07;6.77;;;3.00;;
56481;SDS011;42384;45.186;19.958;2024-02-21T09:18:34;9.38;;;3.42;;
56481;SDS011;42384;45.186;19.958;2024-02-21T09:21:00;6.63;;;2.92;;
56481;SDS011;42384;45.186;19.958;2024-02-21T09:23:27;8.55;;;3.60;;
56481;SDS011;42384;45.186;19.958;2024-02-21T09:25:53;13.65;;;3.97;;
56481;SDS011;42384;45.186;19.958;2024-02-21T09:28:20;9.73;;;3.50;;
56481;SDS011;42384;45.186;19.958;2024-02-21T09:30:47;7.82;;;3.28;;
56481;SDS011;42384;45.186;19.958;2024-02-21T09:33:14;9.93;;;4.10;;
56481;SDS011;42384;45.186;19.958;2024-02-21T09:35:40;9.03;;;3.10;;
56481;SDS011;42384;45.186;19.958;2024-02-21T09:38:06;6.63;;;2.20;;
56481;SDS011;42384;45.186;19.958;2024-02-21T09:40:32;7.80;;;2.87;;
56481;SDS011;42384;45.186;19.958;2024-02-21T09:43:03;11.25;;;2.90;;
56481;SDS011;42384;45.186;19.958;2024-02-21T09:45:32;8.85;;;3.03;;
56481;SDS011;42384;45.186;19.958;2024-02-21T09:50:25;6.85;;;2.55;;
56481;SDS011;42384;45.186;19.958;2024-02-21T09:52:52;10.50;;;3.90;;
56481;SDS011;42384;45.186;19.958;2024-02-21T09:55:19;8.73;;;3.35;;
56481;SDS011;42384;45.186;19.958;2024-02-21T09:57:45;8.88;;;2.88;;
56481;SDS011;42384;45.186;19.958;2024-02-21T10:00:12;10.30;;;3.17;;
56481;SDS011;42384;45.186;19.958;2024-02-21T10:02:47;9.48;;;3.10;;
56481;SDS011;42384;45.186;19.958;2024-02-21T10:05:14;10.10;;;2.80;;
56481;SDS011;42384;45.186;19.958;2024-02-21T10:07:41;9.20;;;2.80;;
56481;SDS011;42384;45.186;19.958;2024-02-21T10:10:08;8.88;;;3.28;;
56481;SDS011;42384;45.186;19.958;2024-02-21T10:12:34;10.05;;;3.20;;
56481;SDS011;42384;45.186;19.958;2024-02-21T10:15:01;9.23;;;3.50;;
56481;SDS011;42384;45.186;19.958;2024-02-21T10:17:27;16.55;;;3.47;;
56481;SDS011;42384;45.186;19.958;2024-02-21T10:19:53;9.32;;;3.17;;
56481;SDS011;42384;45.186;19.958;2024-02-21T10:22:20;7.90;;;3.00;;
56481;SDS011;42384;45.186;19.958;2024-02-21T10:24:46;6.50;;;2.75;;
56481;SDS011;42384;45.186;19.958;2024-02-21T10:27:12;10.53;;;3.00;;
56481;SDS011;42384;45.186;19.958;2024-02-21T10:29:39;9.27;;;2.73;;
56481;SDS011;42384;45.186;19.958;2024-02-21T10:34:33;11.43;;;2.75;;
56481;SDS011;42384;45.186;19.958;2024-02-21T10:37:06;9.40;;;2.55;;
56481;SDS011;42384;45.186;19.958;2024-02-21T10:39:32;8.70;;;2.80;;
56481;SDS011;42384;45.186;19.958;2024-02-21T10:42:00;9.13;;;3.30;;
56481;SDS011;42384;45.186;19.958;2024-02-21T10:44:30;5.68;;;3.00;;
56481;SDS011;42384;45.186;19.958;2024-02-21T10:49:23;9.60;;;2.85;;
56481;SDS011;42384;45.186;19.958;2024-02-21T10:51:50;6.93;;;2.42;;
56481;SDS011;42384;45.186;19.958;2024-02-21T10:54:30;7.95;;;2.78;;
56481;SDS011;42384;45.186;19.958;2024-02-21T10:57:00;9.45;;;2.53;;
56481;SDS011;42384;45.186;19.958;2024-02-21T10:59:28;9.55;;;2.45;;
56481;SDS011;42384;45.186;19.958;2024-02-21T11:01:57;7.70;;;3.20;;
56481;SDS011;42384;45.186;19.958;2024-02-21T11:04:23;8.52;;;3.00;;
56481;SDS011;42384;45.186;19.958;2024-02-21T11:06:50;10.30;;;3.05;;
56481;SDS011;42384;45.186;19.958;2024-02-21T11:09:17;7.65;;;2.47;;
56481;SDS011;42384;45.186;19.958;2024-02-21T11:11:43;9.57;;;3.27;;
56481;SDS011;42384;45.186;19.958;2024-02-21T11:14:11;11.57;;;2.67;;
56481;SDS011;42384;45.186;19.958;2024-02-21T11:16:39;8.77;;;2.38;;
56481;SDS011;42384;45.186;19.958;2024-02-21T11:21:35;5.90;;;1.95;;
56481;SDS011;42384;45.186;19.958;2024-02-21T11:24:02;6.10;;;2.08;;
56481;SDS011;42384;45.186;19.958;2024-02-21T11:26:29;7.22;;;2.08;;
56481;SDS011;42384;45.186;19.958;2024-02-21T11:29:00;10.13;;;2.10;;
56481;SDS011;42384;45.186;19.958;2024-02-21T11:31:37;8.43;;;2.55;;
56481;SDS011;42384;45.186;19.958;2024-02-21T11:36:31;6.43;;;2.50;;
56481;SDS011;42384;45.186;19.958;2024-02-21T11:39:03;6.77;;;2.40;;
56481;SDS011;42384;45.186;19.958;2024-02-21T11:41:29;7.70;;;1.77;;
56481;SDS011;42384;45.186;19.958;2024-02-21T11:43:56;5.95;;;1.95;;
56481;SDS011;42384;45.186;19.958;2024-02-21T11:46:22;5.75;;;2.03;;
56481;SDS011;42384;45.186;19.958;2024-02-21T11:48:48;6.75;;;2.13;;
56481;SDS011;42384;45.186;19.958;2024-02-21T11:51:21;6.63;;;1.85;;
56481;SDS011;42384;45.186;19.958;2024-02-21T11:53:48;7.40;;;1.73;;
56481;SDS011;42384;45.186;19.958;2024-02-21T11:56:14;4.37;;;1.50;;
56481;SDS011;42384;45.186;19.958;2024-02-21T11:58:40;5.90;;;1.67;;
56481;SDS011;42384;45.186;19.958;2024-02-21T12:01:08;5.85;;;1.90;;
56481;SDS011;42384;45.186;19.958;2024-02-21T12:03:34;5.32;;;1.48;;
56481;SDS011;42384;45.186;19.958;2024-02-21T12:06:01;5.38;;;1.70;;
56481;SDS011;42384;45.186;19.958;2024-02-21T12:08:40;6.65;;;1.73;;
56481;SDS011;42384;45.186;19.958;2024-02-21T12:11:17;6.03;;;1.75;;
56481;SDS011;42384;45.186;19.958;2024-02-21T12:13:44;6.28;;;2.35;;
56481;SDS011;42384;45.186;19.958;2024-02-21T12:16:10;7.38;;;2.17;;
56481;SDS011;42384;45.186;19.958;2024-02-21T12:18:38;6.60;;;2.20;;
56481;SDS011;42384;45.186;19.958;2024-02-21T12:21:05;7.55;;;2.63;;
56481;SDS011;42384;45.186;19.958;2024-02-21T12:23:31;7.80;;;1.83;;
56481;SDS011;42384;45.186;19.958;2024-02-21T12:25:58;12.90;;;2.88;;
56481;SDS011;42384;45.186;19.958;2024-02-21T12:28:25;10.90;;;2.30;;
56481;SDS011;42384;45.186;19.958;2024-02-21T12:30:51;9.57;;;2.63;;
56481;SDS011;42384;45.186;19.958;2024-02-21T12:33:18;9.05;;;2.67;;
56481;SDS011;42384;45.186;19.958;2024-02-21T12:35:44;6.28;;;1.88;;
56481;SDS011;42384;45.186;19.958;2024-02-21T12:38:10;7.20;;;1.93;;
56481;SDS011;42384;45.186;19.958;2024-02-21T12:40:38;6.78;;;2.20;;
56481;SDS011;42384;45.186;19.958;2024-02-21T12:43:05;9.70;;;2.65;;
56481;SDS011;42384;45.186;19.958;2024-02-21T12:45:31;7.90;;;2.53;;
56481;SDS011;42384;45.186;19.958;2024-02-21T12:47:59;8.55;;;2.40;;
56481;SDS011;42384;45.186;19.958;2024-02-21T12:50:25;10.70;;;2.70;;
56481;SDS011;42384;45.186;19.958;2024-02-21T12:52:52;9.43;;;2.53;;
56481;SDS011;42384;45.186;19.958;2024-02-21T12:55:18;6.07;;;2.10;;
56481;SDS011;42384;45.186;19.958;2024-02-21T12:57:44;10.68;;;2.47;;
56481;SDS011;42384;45.186;19.958;2024-02-21T13:00:11;7.33;;;2.23;;
56481;SDS011;42384;45.186;19.958;2024-02-21T13:02:37;11.05;;;3.25;;
56481;SDS011;42384;45.186;19.958;2024-02-21T13:05:03;7.63;;;2.73;;
56481;SDS011;42384;45.186;19.958;2024-02-21T13:07:30;7.63;;;2.83;;
56481;SDS011;42384;45.186;19.958;2024-02-21T13:09:57;9.93;;;1.55;;
56481;SDS011;42384;45.186;19.958;2024-02-21T13:12:23;12.23;;;3.00;;
56481;SDS011;42384;45.186;19.958;2024-02-21T13:14:51;9.63;;;2.13;;
56481;SDS011;42384;45.186;19.958;2024-02-21T13:17:17;9.33;;;2.10;;
56481;SDS011;42384;45.186;19.958;2024-02-21T13:19:43;11.47;;;2.17;;
56481;SDS011;42384;45.186;19.958;2024-02-21T13:22:09;10.37;;;2.03;;
56481;SDS011;42384;45.186;19.958;2024-02-21T13:24:36;15.07;;;3.67;;
56481;SDS011;42384;45.186;19.958;2024-02-21T13:27:02;10.10;;;2.57;;
56481;SDS011;42384;45.186;19.958;2024-02-21T13:29:28;11.48;;;3.08;;
56481;SDS011;42384;45.186;19.958;2024-02-21T13:31:55;10.57;;;2.50;;
56481;SDS011;42384;45.186;19.958;2024-02-21T13:34:21;9.17;;;3.17;;
56481;SDS011;42384;45.186;19.958;2024-02-21T13:36:47;8.73;;;2.90;;
56481;SDS011;42384;45.186;19.958;2024-02-21T13:39:13;7.33;;;2.10;;
56481;SDS011;42384;45.186;19.958;2024-02-21T13:44:07;12.13;;;2.83;;
56481;SDS011;42384;45.186;19.958;2024-02-21T13:46:34;9.43;;;2.00;;
56481;SDS011;42384;45.186;19.958;2024-02-21T13:49:04;7.40;;;2.00;;
56481;SDS011;42384;45.186;19.958;2024-02-21T13:51:33;10.85;;;2.70;;
56481;SDS011;42384;45.186;19.958;2024-02-21T13:54:03;8.38;;;2.65;;
56481;SDS011;42384;45.186;19.958;2024-02-21T13:56:30;9.13;;;2.33;;
56481;SDS011;42384;45.186;19.958;2024-02-21T13:58:57;8.00;;;2.22;;
56481;SDS011;42384;45.186;19.958;2024-02-21T14:01:25;12.43;;;2.88;;
56481;SDS011;42384;45.186;19.958;2024-02-21T14:03:53;8.57;;;1.77;;
56481;SDS011;42384;45.186;19.958;2024-02-21T14:06:19;11.00;;;2.00;;
56481;SDS011;42384;45.186;19.958;2024-02-21T14:08:45;12.18;;;2.83;;
56481;SDS011;42384;45.186;19.958;2024-02-21T14:11:11;13.20;;;3.13;;
56481;SDS011;42384;45.186;19.958;2024-02-21T14:13:39;9.30;;;2.75;;
56481;SDS011;42384;45.186;19.958;2024-02-21T14:16:09;10.13;;;2.40;;
56481;SDS011;42384;45.186;19.958;2024-02-21T14:18:38;7.93;;;2.15;;
56481;SDS011;42384;45.186;19.958;2024-02-21T14:21:07;10.88;;;2.60;;
56481;SDS011;42384;45.186;19.958;2024-02-21T14:23:36;9.57;;;2.53;;
56481;SDS011;42384;45.186;19.958;2024-02-21T14:26:02;9.50;;;2.58;;
56481;SDS011;42384;45.186;19.958;2024-02-21T14:28:28;10.00;;;2.50;;
56481;SDS011;42384;45.186;19.958;2024-02-21T14:30:55;10.93;;;2.80;;
56481;SDS011;42384;45.186;19.958;2024-02-21T14:33:25;8.45;;;2.53;;
56481;SDS011;42384;45.186;19.958;2024-02-21T14:35:51;8.73;;;1.85;;
56481;SDS011;42384;45.186;19.958;2024-02-21T14:38:18;9.17;;;2.30;;
56481;SDS011;42384;45.186;19.958;2024-02-21T14:43:11;9.98;;;1.92;;
56481;SDS011;42384;45.186;19.958;2024-02-21T14:45:37;16.73;;;3.03;;
56481;SDS011;42384;45.186;19.958;2024-02-21T14:48:04;9.35;;;2.33;;
56481;SDS011;42384;45.186;19.958;2024-02-21T14:50:30;7.90;;;2.90;;
56481;SDS011;42384;45.186;19.958;2024-02-21T14:52:56;10.50;;;2.77;;